Latest Weather Observations for Lord Howe Island

IDN60801

Issued at 10:12 am EST Monday 16 September 2019 (issued every 10 minutes, with the page automatically refreshed every 10 minutes)

About weather observations | Map of weather stations | Latest weather observations for NSW | Other Formats
Station Details ID: 200839 Name: LORD HOWE ISLAND AERO Lat: -31.54 Lon: 159.08 Height: 5.0 m
Data from the previous 72 hours. | See also: Recent months at Lord Howe Island

Observations are collected in the New South Wales time zone (Eastern Standard Time) which includes daylight savings in the summer period. Therefore 'Rain since 9am' totals and other values are based on the New South Wales time zone, which may differ from local time.

Date/Time
EST
Temp
°C
App
Temp
°C
Dew
Point
°C
Rel
Hum
%
Delta-T
°C
Wind Press
QNH
hPa
Press
MSL
hPa
Rain since
9am
mm
Dir  Spd
km/h
Gust
km/h
Spd
kts
Gust
kts
16/10:00am 19.3 17.1 13.3 68 3.4 WNW 17 24 9 13 1022.3 1022.2 0.0
16/09:30am 19.1 17.9 12.8 67 3.5 NW 11 19 6 10 1022.6 1022.5 0.0
16/09:00am 19.2 17.8 13.4 69 3.3 NNW 13 22 7 12 1022.8 1022.7 0.0
16/08:30am 18.8 17.3 13.2 70 3.2 WNW 13 22 7 12 1023.0 1022.9 0.0
16/08:00am 18.3 16.7 12.7 70 3.1 WNW 13 19 7 10 1023.3 1023.2 0.0
16/07:30am 18.0 16.8 12.7 71 3.0 WNW 11 17 6 9 1023.3 1023.2 0.0
16/07:00am 17.0 15.5 11.9 72 2.8 WNW 11 15 6 8 1023.4 1023.3 0.0
16/06:30am 16.7 15.8 12.7 77 2.2 NW 9 15 5 8 1023.1 1023.0 0.0
16/06:00am 15.1 14.9 11.7 80 1.8 WNW 4 9 2 5 1023.0 1022.9 0.0
16/05:30am 13.8 13.6 10.4 80 1.8 NW 2 6 1 3 1022.8 1022.7 0.0
16/05:00am 13.9 13.3 10.5 80 1.8 NW 4 9 2 5 1022.7 1022.6 0.0
16/04:30am 13.8 13.6 10.4 80 1.8 WSW 2 6 1 3 1022.8 1022.7 0.0
16/04:00am 13.0 12.9 9.6 80 1.7 CALM 0 0 0 0 1022.8 1022.7 0.0
16/03:30am 12.6 12.1 9.2 80 1.7 WSW 2 7 1 4 1022.7 1022.6 0.0
16/03:00am 12.6 11.7 9.2 80 1.7 SW 4 7 2 4 1022.6 1022.5 0.0
16/02:30am 11.6 11.2 8.1 79 1.7 CALM 0 0 0 0 1022.4 1022.3 0.0
16/02:00am 12.1 11.8 8.6 79 1.7 CALM 0 0 0 0 1022.3 1022.2 0.0
16/01:30am 12.0 11.6 8.3 78 1.8 CALM 0 0 0 0 1022.5 1022.4 0.0
16/01:00am 11.4 10.9 7.7 78 1.8 CALM 0 0 0 0 1022.6 1022.5 0.0
16/12:30am 11.3 10.7 7.4 77 1.9 CALM 0 0 0 0 1022.8 1022.7 0.0
16/12:00am 12.3 11.9 8.2 76 2.0 CALM 0 0 0 0 1022.8 1022.7 0.0
 
Date/Time
EST
Temp
°C
App
Temp
°C
Dew
Point
°C
Rel
Hum
%
Delta-T
°C
Wind Press
QNH
hPa
Press
MSL
hPa
Rain since
9am
mm
Dir  Spd
km/h
Gust
km/h
Spd
kts
Gust
kts
15/11:30pm 12.9 12.6 8.6 75 2.1 CALM 0 0 0 0 1023.0 1022.9 0.0
15/11:00pm 13.8 13.7 9.3 74 2.3 CALM 0 0 0 0 1023.3 1023.2 0.0
15/10:30pm 15.5 14.6 10.7 73 2.5 SSW 6 7 3 4 1023.5 1023.4 0.0
15/10:00pm 14.3 13.1 9.7 74 2.4 SW 6 11 3 6 1023.4 1023.3 0.0
15/09:30pm 14.4 14.0 9.6 73 2.5 SSW 2 6 1 3 1023.5 1023.4 0.0
15/09:00pm 14.2 13.2 9.0 71 2.6 SSW 4 9 2 5 1023.6 1023.5 0.0
15/08:30pm 15.7 14.4 9.8 68 3.1 S 7 11 4 6 1023.4 1023.3 0.0
15/08:00pm 16.5 14.8 9.9 65 3.4 SSW 9 19 5 10 1023.3 1023.2 0.0
15/07:30pm 16.7 14.6 9.9 64 3.6 SSW 11 17 6 9 1023.5 1023.4 0.0
15/07:00pm 17.0 15.1 10.4 65 3.5 SSW 11 17 6 9 1023.2 1023.1 0.0
15/06:30pm 16.9 14.6 10.5 66 3.4 SSW 13 20 7 11 1023.1 1023.0 0.0
15/06:00pm 16.8 14.5 10.6 67 3.3 SSW 13 20 7 11 1022.5 1022.4 0.0
15/05:30pm 16.9 14.2 10.5 66 3.4 SSW 15 22 8 12 1022.3 1022.2 0.0
15/05:00pm 16.9 14.6 10.3 65 3.5 SW 13 19 7 10 1022.0 1021.9 0.0
15/04:30pm 17.3 14.9 10.2 63 3.8 SW 13 19 7 10 1021.6 1021.5 0.0
15/04:00pm 17.8 14.9 10.9 64 3.7 SW 17 22 9 12 1021.2 1021.1 0.0
15/03:30pm 18.1 14.9 11.2 64 3.7 SW 19 28 10 15 1021.3 1021.2 0.0
15/03:00pm 18.2 15.2 10.8 62 4.0 SW 17 28 9 15 1021.1 1021.0 0.0
15/02:30pm 18.3 14.9 10.7 61 4.1 SW 19 28 10 15 1020.9 1020.8 0.0
15/02:00pm 18.4 14.9 10.8 61 4.1 SW 20 28 11 15 1021.0 1020.9 0.0
15/01:30pm 18.6 15.2 11.2 62 4.0 SW 20 32 11 17 1021.2 1021.1 0.0
15/01:00pm 18.5 14.7 11.1 62 4.0 SW 22 32 12 17 1021.4 1021.3 0.0
15/12:30pm 18.6 15.2 11.2 62 4.0 SW 20 30 11 16 1021.5 1021.4 0.0
15/12:00pm 18.5 14.9 10.6 60 4.2 SW 20 32 11 17 1021.6 1021.5 0.0
15/11:30am 18.3 14.6 10.2 59 4.3 SW 20 33 11 18 1021.6 1021.5 0.0
15/11:00am 18.1 14.4 10.2 60 4.2 SW 20 30 11 16 1021.8 1021.7 0.0
15/10:30am 18.0 14.4 10.6 62 4.0 SW 20 32 11 17 1021.9 1021.8 0.0
15/10:00am 18.3 14.8 10.9 62 4.0 SW 20 30 11 16 1021.8 1021.7 0.0
15/09:30am 18.1 14.6 11.0 63 3.8 SW 20 35 11 19 1021.8 1021.7 0.0
15/09:00am 18.3 14.6 11.4 64 3.8 SW 22 35 12 19 1021.8 1021.7 0.0
15/08:30am 18.0 14.0 10.6 62 4.0 SW 22 32 12 17 1021.7 1021.6 0.2
15/08:00am 17.8 13.7 10.2 61 4.0 SW 22 35 12 19 1021.6 1021.5 0.2
15/07:30am 17.5 12.9 9.7 60 4.1 SW 24 37 13 20 1021.4 1021.3 0.2
15/07:00am 17.4 13.2 9.8 61 4.0 SW 22 33 12 18 1021.0 1020.9 0.2
15/06:30am 16.9 12.7 9.6 62 3.8 SW 22 33 12 18 1020.6 1020.5 0.2
15/06:00am 16.6 12.9 10.0 65 3.5 SW 20 35 11 19 1020.2 1020.1 0.2
15/05:30am 16.3 12.4 9.3 63 3.6 SW 20 32 11 17 1019.7 1019.7 0.2
15/05:00am 16.5 12.4 10.1 66 3.4 SW 22 33 12 18 1019.3 1019.3 0.2
15/04:30am 16.6 12.8 11.1 70 3.0 SW 22 33 12 18 1019.0 1019.0 0.2
15/04:00am 16.6 12.3 10.9 69 3.0 SW 24 37 13 20 1018.7 1018.7 0.2
15/03:30am 16.6 12.8 11.1 70 3.0 SW 22 35 12 19 1018.7 1018.7 0.2
15/03:00am 16.6 12.5 10.2 66 3.4 SW 22 32 12 17 1018.5 1018.5 0.2
15/02:30am 16.4 12.7 10.0 66 3.4 SW 20 30 11 16 1018.3 1018.3 0.2
15/02:00am 16.4 12.2 9.6 64 3.5 SW 22 39 12 21 1018.4 1018.4 0.2
15/01:30am 16.4 11.9 8.6 60 4.0 SW 22 33 12 18 1018.6 1018.6 0.2
15/01:00am 16.5 11.8 9.2 62 3.8 SW 24 33 13 18 1018.8 1018.8 0.2
15/12:30am 16.6 11.6 9.5 63 3.7 SW 26 37 14 20 1019.0 1019.0 0.2
15/12:00am 16.8 12.3 10.2 65 3.5 SW 24 37 13 20 1019.0 1019.0 0.2
 
Date/Time
EST
Temp
°C
App
Temp
°C
Dew
Point
°C
Rel
Hum
%
Delta-T
°C
Wind Press
QNH
hPa
Press
MSL
hPa
Rain since
9am
mm
Dir  Spd
km/h
Gust
km/h
Spd
kts
Gust
kts
14/11:30pm 16.8 12.6 9.7 63 3.7 SW 22 39 12 21 1019.0 1019.0 0.2
14/11:00pm 16.9 12.7 9.8 63 3.7 SW 22 32 12 17 1019.1 1019.1 0.2
14/10:30pm 16.8 13.2 9.7 63 3.7 SW 19 30 10 16 1019.1 1019.1 0.2
14/10:00pm 16.8 12.8 9.2 61 3.9 SW 20 30 11 16 1019.2 1019.2 0.2
14/09:30pm 17.0 13.4 9.7 62 3.8 SW 19 30 10 16 1019.4 1019.4 0.2
14/09:00pm 17.2 13.7 11.0 67 3.3 SW 20 32 11 17 1019.5 1019.5 0.2
14/08:30pm 17.0 14.2 11.3 69 3.1 SW 17 32 9 17 1019.4 1019.4 0.2
14/08:00pm 16.9 14.0 12.2 74 2.6 SW 19 28 10 15 1019.3 1019.3 0.2
14/07:30pm 16.7 14.1 12.0 74 2.6 SW 17 26 9 14 1019.1 1019.1 0.2
14/07:00pm 16.7 14.0 11.8 73 2.7 SW 17 26 9 14 1018.6 1018.6 0.2
14/06:30pm 16.8 13.6 11.9 73 2.7 SSW 20 37 11 20 1018.4 1018.4 0.2
14/06:00pm 16.5 14.4 12.5 77 2.2 SW 15 26 8 14 1018.2 1018.2 0.2
14/05:30pm 16.4 14.4 12.6 78 2.1 SW 15 22 8 12 1018.0 1018.0 0.2
14/05:00pm 16.1 12.7 12.5 79 2.0 SSW 22 33 12 18 1017.7 1017.7 0.2
14/04:30pm 16.4 12.1 12.2 76 2.3 SW 26 39 14 21 1017.3 1017.3 0.2
14/04:00pm 18.4 14.9 13.5 73 2.8 WSW 24 35 13 19 1017.0 1017.0 0.2
14/03:30pm 18.8 15.0 13.6 72 3.0 WSW 26 35 14 19 1016.8 1016.8 0.2
14/03:00pm 18.8 14.5 13.2 70 3.2 WSW 28 35 15 19 1016.7 1016.7 0.2
14/02:30pm 18.8 15.2 13.0 69 3.3 WSW 24 33 13 18 1016.8 1016.8 0.2
14/02:00pm 18.8 15.2 13.0 69 3.3 WSW 24 35 13 19 1017.0 1017.0 0.2
14/01:30pm 18.7 13.9 12.9 69 3.3 WSW 30 39 16 21 1017.1 1017.1 0.2
14/01:00pm 18.8 14.4 12.8 68 3.4 WSW 28 35 15 19 1017.1 1017.1 0.2
14/12:30pm 18.6 14.1 12.6 68 3.4 WSW 28 37 15 20 1017.6 1017.6 0.2
14/12:00pm 18.5 14.3 12.3 67 3.4 WSW 26 35 14 19 1018.0 1018.0 0.2
14/11:30am 18.6 13.7 12.6 68 3.3 WSW 30 39 16 21 1018.3 1018.3 0.2
14/11:00am 19.2 15.3 13.2 68 3.4 WSW 26 32 14 17 1018.5 1018.5 0.2
14/10:30am 18.9 14.0 12.6 67 3.5 WSW 30 33 16 18 1018.8 1018.8 0.2
14/10:00am 18.8 14.4 13.0 69 3.3 WSW 28 35 15 19 1019.1 1019.1 0.2
14/09:30am 18.6 14.5 12.8 69 3.3 WSW 26 33 14 18 1019.3 1019.3 0.2
14/09:00am 18.4 15.5 12.8 70 3.1 WSW 20 28 11 15 1019.2 1019.2 0.0
14/08:30am 18.1 15.9 13.2 73 2.8 WSW 17 20 9 11 1019.2 1019.2 3.4
14/08:00am 17.6 15.2 12.7 73 2.7 WSW 17 22 9 12 1019.2 1019.2 3.4
14/07:30am 17.4 14.6 12.7 74 2.6 WSW 19 24 10 13 1019.1 1019.1 3.4
14/07:00am 17.2 15.3 12.9 76 2.4 WSW 15 24 8 13 1018.7 1018.7 3.4
14/06:30am 16.9 14.6 13.0 78 2.2 WSW 17 24 9 13 1018.6 1018.6 3.4
14/06:00am 16.7 13.7 12.7 77 2.2 WSW 20 28 11 15 1018.4 1018.4 3.4
14/05:30am 16.7 12.5 12.5 76 2.3 WSW 26 33 14 18 1018.3 1018.3 3.4
14/05:00am 16.8 13.3 12.3 75 2.5 WSW 22 28 12 15 1017.9 1017.9 3.4
14/04:30am 16.7 14.1 12.0 74 2.6 WSW 17 24 9 13 1017.8 1017.8 3.4
14/04:00am 16.7 14.5 12.0 74 2.6 WSW 15 22 8 12 1017.5 1017.5 3.4
14/03:30am 16.6 15.1 12.0 74 2.5 WSW 11 17 6 9 1017.5 1017.5 3.4
14/03:00am 16.6 14.4 12.0 74 2.5 WSW 15 20 8 11 1017.9 1017.9 3.4
14/02:30am 16.6 14.4 12.2 75 2.4 WSW 15 22 8 12 1018.2 1018.2 3.4
14/02:00am 16.5 14.2 11.9 74 2.5 WSW 15 20 8 11 1018.4 1018.4 3.4
14/01:30am 16.6 15.0 11.5 72 2.8 SW 11 17 6 9 1018.7 1018.7 3.4
14/01:00am 16.8 14.5 11.7 72 2.8 WSW 15 22 8 12 1019.1 1019.1 3.4
14/12:30am 17.0 14.4 12.1 73 2.7 WSW 17 24 9 13 1019.4 1019.4 3.4
14/12:00am 17.0 14.5 12.3 74 2.6 SW 17 24 9 13 1019.5 1019.5 3.4
 
Date/Time
EST
Temp
°C
App
Temp
°C
Dew
Point
°C
Rel
Hum
%
Delta-T
°C
Wind Press
QNH
hPa
Press
MSL
hPa
Rain since
9am
mm
Dir  Spd
km/h
Gust
km/h
Spd
kts
Gust
kts
13/11:30pm 17.2 14.4 12.5 74 2.6 SW 19 28 10 15 1019.6 1019.6 3.4
13/11:00pm 17.2 14.2 12.7 75 2.5 SW 20 33 11 18 1019.9 1019.8 3.4
13/10:30pm 17.2 14.9 12.9 76 2.4 SW 17 24 9 13 1020.0 1019.9 3.4
13/10:00pm 17.1 15.2 13.0 77 2.3 SW 15 24 8 13 1020.0 1019.9 3.4
13/09:30pm 17.1 14.9 13.2 78 2.2 SW 17 26 9 14 1019.9 1019.8 3.4
13/09:00pm 17.3 15.7 13.8 80 2.0 SW 15 24 8 13 1020.0 1019.9 3.4
13/08:30pm 17.3 15.3 13.8 80 2.0 SSW 17 24 9 13 1019.7 1019.7 3.4
13/08:00pm 17.4 15.5 14.1 81 1.9 SW 17 24 9 13 1019.7 1019.7 3.4
13/07:30pm 17.6 15.3 14.1 80 2.0 SW 19 28 10 15 1020.0 1019.9 3.4
13/07:00pm 17.8 15.6 14.5 81 1.9 SW 19 26 10 14 1019.7 1019.7 3.4
13/06:30pm 17.6 16.1 14.1 80 2.0 SW 15 22 8 12 1019.5 1019.5 3.4
13/06:00pm 17.6 16.3 13.7 78 2.2 SW 13 19 7 10 1019.1 1019.1 3.4
13/05:30pm 17.4 15.3 13.5 78 2.2 SW 17 24 9 13 1018.8 1018.8 3.4
13/05:00pm 17.5 16.2 13.6 78 2.2 SW 13 20 7 11 1018.2 1018.2 3.4
13/04:30pm 17.7 16.5 14.0 79 2.1 WSW 13 19 7 10 1018.1 1018.1 3.4
13/04:00pm 18.0 16.5 14.3 79 2.1 WSW 15 19 8 10 1017.9 1017.9 3.4
13/03:30pm 18.5 16.5 15.0 80 2.0 W 19 22 10 12 1017.8 1017.8 3.4
13/03:00pm 17.3 16.0 13.8 80 2.0 WNW 13 17 7 9 1017.6 1017.6 3.4
13/02:46pm 17.2 15.1 13.7 80 2.0 WNW 17 22 9 12 1017.5 1017.5 3.4
13/02:30pm 17.0 14.4 13.3 79 2.1 W 19 24 10 13 1017.6 1017.6 3.4
13/02:00pm 16.9 15.8 13.2 79 2.1 WSW 11 17 6 9 1017.6 1017.6 3.4
13/01:30pm 16.6 15.4 12.8 78 2.1 SW 11 19 6 10 1017.9 1017.9 3.4
13/01:17pm 15.5 13.1 11.5 77 2.2 WSW 15 22 8 12 1018.2 1018.2 3.4
13/01:00pm 15.7 11.6 11.5 76 2.3 WSW 24 44 13 24 1018.6 1018.6 2.4
13/12:57pm 16.2 12.3 12.0 76 2.3 WSW 24 44 13 24 1018.4 1018.4 1.6
13/12:47pm 18.0 14.9 12.2 69 3.2 WSW 20 26 11 14 1018.2 1018.2 0.6
13/12:30pm 19.0 16.3 13.0 68 3.4 WSW 19 24 10 13 1018.4 1018.4 0.6
13/12:00pm 19.1 17.4 13.7 71 3.1 W 15 19 8 10 1018.7 1018.7 0.6
13/11:30am 18.4 17.6 13.9 75 2.6 WSW 11 17 6 9 1018.9 1018.9 0.6
13/11:00am 17.8 16.8 13.5 76 2.4 SW 11 17 6 9 1019.2 1019.2 0.6
13/10:30am 16.7 15.1 12.8 78 2.2 SW 13 20 7 11 1019.5 1019.5 0.6
13/10:00am 15.7 13.8 11.9 78 2.1 WSW 13 17 7 9 1019.9 1019.8 0.6

Other formats

Comma delimited format used in spreadsheet applications
http://www.bom.gov.au/fwo/IDN60801/IDN60801.94995.axf

JavaScript Object Notation format (JSON) in row-major order
http://www.bom.gov.au/fwo/IDN60801/IDN60801.94995.json

Data quality

Most of these data are generated automatically and are frequently updated. Quality checks on data are not normally performed. It is possible for incorrect values to appear. Refer to information at About Latest Weather Observations and please check the disclaimer before using these data.